Time;durP1;ratioP1;P1;durP2;ratioP2;P2;SDS_P1;SDS_P2;PMS_P1;PMS_P2;Temp;Humidity;BMP_temperature;BMP_pressure;BME280_temperature;BME280_humidity;BME280_pressure;Samples;Min_cycle;Max_cycle;Signal;HPM_P1;HPM_P2
2021/04/21 00:00:11;;;;;;;51.90;29.13;;;;;;;;;;5136674;27;20024;-60
2021/04/21 00:02:37;;;;;;;60.25;33.10;;;;;;;;;;5135950;27;20085;-60
2021/04/21 00:05:05;;;;;;;47.92;28.80;;;;;;;;;;5136452;27;20340;-60
2021/04/21 00:07:30;;;;;;;46.78;26.85;;;;;;;;;;5136365;27;20023;-59
2021/04/21 00:09:56;;;;;;;41.67;25.05;;;;;;;;;;5136247;27;20149;-60
2021/04/21 00:12:22;;;;;;;39.15;22.95;;;;;;;;;;5136028;27;20061;-60
2021/04/21 00:14:50;;;;;;;50.20;26.25;;;;;;;;;;5135064;27;20031;-60
2021/04/21 00:17:16;;;;;;;50.25;26.42;;;;;;;;;;5136262;27;20019;-61
2021/04/21 00:19:43;;;;;;;49.13;28.15;;;;;;;;;;5135990;27;20138;-60
2021/04/21 00:22:10;;;;;;;54.45;29.17;;;;;;;;;;5135755;27;20030;-60
2021/04/21 00:24:37;;;;;;;49.63;28.63;;;;;;;;;;5136012;27;20024;-60
2021/04/21 00:27:03;;;;;;;51.90;29.98;;;;;;;;;;5135862;27;20019;-60
2021/04/21 00:29:29;;;;;;;53.28;29.65;;;;;;;;;;5135759;27;20455;-60
2021/04/21 00:31:57;;;;;;;51.90;29.02;;;;;;;;;;5135791;27;20458;-60
2021/04/21 00:34:24;;;;;;;52.72;29.70;;;;;;;;;;5134439;27;20023;-60
2021/04/21 00:36:52;;;;;;;49.17;27.15;;;;;;;;;;5135690;27;20015;-60
2021/04/21 00:39:19;;;;;;;41.20;24.60;;;;;;;;;;5135539;27;20478;-60
2021/04/21 00:41:56;;;;;;;45.22;31.20;;;;;;;;;;5135587;27;20085;-60
2021/04/21 00:44:40;;;;;;;35.55;22.02;;;;;;;;;;5135182;27;20379;-60
2021/04/21 00:47:08;;;;;;;37.95;22.45;;;;;;;;;;5135372;27;20034;-59
2021/04/21 00:49:45;;;;;;;47.72;27.45;;;;;;;;;;5135195;27;20023;-60
2021/04/21 00:52:14;;;;;;;57.85;32.03;;;;;;;;;;5134943;27;20135;-60
2021/04/21 00:54:42;;;;;;;71.32;36.30;;;;;;;;;;5135017;27;20362;-60
2021/04/21 00:57:23;;;;;;;66.05;35.22;;;;;;;;;;5135048;27;20035;-60
2021/04/21 00:59:53;;;;;;;66.88;36.90;;;;;;;;;;5134890;27;20110;-60
2021/04/21 01:02:21;;;;;;;72.78;40.90;;;;;;;;;;5134359;27;20043;-60
2021/04/21 01:04:47;;;;;;;65.95;36.25;;;;;;;;;;5134906;27;20511;-60
2021/04/21 01:07:14;;;;;;;42.22;24.05;;;;;;;;;;5134893;27;20023;-60
2021/04/21 01:09:40;;;;;;;64.60;34.72;;;;;;;;;;5133418;27;20062;-60
2021/04/21 01:12:09;;;;;;;49.63;27.05;;;;;;;;;;5133569;27;20402;-60
2021/04/21 01:14:39;;;;;;;52.80;28.80;;;;;;;;;;5133601;27;20109;-60
2021/04/21 01:17:10;;;;;;;56.13;31.13;;;;;;;;;;5134536;27;20152;-60
2021/04/21 01:19:44;;;;;;;65.88;35.30;;;;;;;;;;5133395;27;20020;-60
2021/04/21 01:22:24;;;;;;;57.65;33.50;;;;;;;;;;5134828;27;20417;-60
2021/04/21 01:24:53;;;;;;;57.63;32.97;;;;;;;;;;5133949;27;20027;-60
2021/04/21 01:27:22;;;;;;;57.92;32.85;;;;;;;;;;5133473;27;20059;-60
2021/04/21 01:29:52;;;;;;;55.72;31.58;;;;;;;;;;5134568;27;20490;-60
2021/04/21 01:32:23;;;;;;;54.10;31.63;;;;;;;;;;5133435;27;20378;-60
2021/04/21 01:34:50;;;;;;;56.70;32.50;;;;;;;;;;5134738;27;20040;-60
2021/04/21 01:37:17;;;;;;;53.63;31.90;;;;;;;;;;5133411;27;20102;-60
2021/04/21 01:39:48;;;;;;;56.13;31.70;;;;;;;;;;5134904;27;20032;-60
2021/04/21 01:42:15;;;;;;;51.00;31.17;;;;;;;;;;5134449;27;20390;-60
2021/04/21 01:44:42;;;;;;;45.75;27.40;;;;;;;;;;5133321;27;20012;-60
2021/04/21 01:47:09;;;;;;;43.35;26.63;;;;;;;;;;5134232;27;20042;-60
2021/04/21 01:49:35;;;;;;;43.92;25.85;;;;;;;;;;5134442;27;20033;-60
2021/04/21 01:52:05;;;;;;;41.65;25.63;;;;;;;;;;5134295;27;20102;-60
2021/04/21 01:54:32;;;;;;;43.50;24.00;;;;;;;;;;5134301;27;20030;-60
2021/04/21 01:57:01;;;;;;;42.75;24.05;;;;;;;;;;5134188;27;20046;-60
2021/04/21 01:59:36;;;;;;;43.67;25.42;;;;;;;;;;5134250;27;20451;-60
2021/04/21 02:02:06;;;;;;;39.92;24.20;;;;;;;;;;5133779;28;20085;-60
2021/04/21 02:04:40;;;;;;;40.70;24.40;;;;;;;;;;5134385;28;20041;-60
2021/04/21 02:07:12;;;;;;;42.00;25.30;;;;;;;;;;5134320;28;20063;-60
2021/04/21 02:10:10;;;;;;;44.55;24.83;;;;;;;;;;5134152;27;20023;-60
2021/04/21 02:12:38;;;;;;;44.17;26.20;;;;;;;;;;5087447;28;20044;-60
2021/04/21 02:15:18;;;;;;;48.35;26.98;;;;;;;;;;5133910;27;20443;-60
2021/04/21 02:17:44;;;;;;;;;;;;;;;;;;5134557;27;20056;-60
2021/04/21 02:20:17;;;;;;;44.35;26.90;;;;;;;;;;5133851;28;20365;-60
2021/04/21 02:22:47;;;;;;;43.50;24.67;;;;;;;;;;5133841;28;20033;-60
2021/04/21 02:25:32;;;;;;;41.55;25.17;;;;;;;;;;5133938;27;20065;-60
2021/04/21 02:28:16;;;;;;;41.25;25.38;;;;;;;;;;5133885;28;20027;-60
2021/04/21 02:30:47;;;;;;;43.25;25.85;;;;;;;;;;5132754;28;20035;-60
2021/04/21 02:33:13;;;;;;;43.95;25.95;;;;;;;;;;5133588;27;20031;-60
2021/04/21 02:35:41;;;;;;;40.58;24.98;;;;;;;;;;5133925;27;20015;-60
2021/04/21 02:38:07;;;;;;;41.63;25.60;;;;;;;;;;5136933;27;20034;-60
2021/04/21 02:40:39;;;;;;;42.95;25.50;;;;;;;;;;5137413;27;20072;-63
2021/04/21 02:43:07;;;;;;;45.33;25.38;;;;;;;;;;5137746;27;20043;-60
2021/04/21 02:45:34;;;;;;;37.85;23.40;;;;;;;;;;5137763;27;20054;-60
2021/04/21 02:48:08;;;;;;;45.70;26.05;;;;;;;;;;5137905;27;20545;-60
2021/04/21 02:50:57;;;;;;;45.45;26.67;;;;;;;;;;5137892;27;20084;-60
2021/04/21 02:53:22;;;;;;;42.63;25.63;;;;;;;;;;5128941;27;20047;-60
2021/04/21 02:55:57;;;;;;;45.80;25.88;;;;;;;;;;5137439;27;20023;-60
2021/04/21 02:58:34;;;;;;;39.63;24.60;;;;;;;;;;5137807;27;20105;-60
2021/04/21 03:01:22;;;;;;;46.10;26.65;;;;;;;;;;5137512;27;20083;-60
2021/04/21 03:03:58;;;;;;;49.30;26.88;;;;;;;;;;5137664;27;20370;-60
2021/04/21 03:06:32;;;;;;;42.45;26.25;;;;;;;;;;5137615;27;20109;-60
2021/04/21 03:09:09;;;;;;;43.13;26.58;;;;;;;;;;5137385;27;20031;-60
2021/04/21 03:11:35;;;;;;;52.40;26.95;;;;;;;;;;5137470;27;20027;-60
2021/04/21 03:14:08;;;;;;;47.80;28.38;;;;;;;;;;5137240;27;20028;-60
2021/04/21 03:16:46;;;;;;;44.08;27.70;;;;;;;;;;5137460;27;20031;-60
2021/04/21 03:19:13;;;;;;;42.60;26.13;;;;;;;;;;5137388;27;20023;-60
2021/04/21 03:21:51;;;;;;;42.63;25.52;;;;;;;;;;5137308;27;20086;-61
2021/04/21 03:24:17;;;;;;;41.20;25.63;;;;;;;;;;5137285;27;20080;-60
2021/04/21 03:26:46;;;;;;;49.20;25.95;;;;;;;;;;5137186;27;20097;-60
2021/04/21 03:29:31;;;;;;;44.92;25.63;;;;;;;;;;5137080;27;20031;-60
2021/04/21 03:31:59;;;;;;;43.65;25.05;;;;;;;;;;5136809;27;20059;-60
2021/04/21 03:34:27;;;;;;;45.90;26.65;;;;;;;;;;5136422;27;20020;-60
2021/04/21 03:36:53;;;;;;;47.40;26.92;;;;;;;;;;5135658;27;20031;-60
2021/04/21 03:39:19;;;;;;;41.03;24.65;;;;;;;;;;5135316;27;20068;-60
2021/04/21 03:41:44;;;;;;;42.53;24.42;;;;;;;;;;5136829;27;20019;-60
2021/04/21 03:44:11;;;;;;;42.47;25.63;;;;;;;;;;5136694;27;20023;-60
2021/04/21 03:46:36;;;;;;;46.20;27.90;;;;;;;;;;5136573;27;20027;-60
2021/04/21 03:49:02;;;;;;;48.42;28.17;;;;;;;;;;5136079;27;20034;-60
2021/04/21 03:51:28;;;;;;;46.78;27.70;;;;;;;;;;5136357;27;20450;-60
2021/04/21 03:53:54;;;;;;;43.75;26.83;;;;;;;;;;5136232;27;20382;-60
2021/04/21 03:56:23;;;;;;;49.15;27.73;;;;;;;;;;5136280;27;20478;-60
2021/04/21 03:58:49;;;;;;;47.70;27.38;;;;;;;;;;5136279;27;20103;-60
2021/04/21 04:01:17;;;;;;;49.03;29.38;;;;;;;;;;5134977;27;20027;-60
2021/04/21 04:03:52;;;;;;;47.97;27.17;;;;;;;;;;5136241;27;20035;-60
2021/04/21 04:06:23;;;;;;;48.35;27.58;;;;;;;;;;5136343;27;20110;-60
2021/04/21 04:08:50;;;;;;;46.40;29.00;;;;;;;;;;5136410;27;20115;-60
2021/04/21 04:11:16;;;;;;;46.88;27.88;;;;;;;;;;5136194;27;20057;-59
2021/04/21 04:13:43;;;;;;;49.70;29.63;;;;;;;;;;5136124;27;20023;-60
2021/04/21 04:16:10;;;;;;;49.45;29.63;;;;;;;;;;5136177;27;20039;-60
2021/04/21 04:18:38;;;;;;;42.90;27.27;;;;;;;;;;5136015;27;20546;-60
2021/04/21 04:21:05;;;;;;;46.15;28.33;;;;;;;;;;5136018;27;20448;-60
2021/04/21 04:23:32;;;;;;;46.20;28.15;;;;;;;;;;5136103;27;20035;-60
2021/04/21 04:25:58;;;;;;;45.88;27.67;;;;;;;;;;5134724;27;20126;-60
2021/04/21 04:28:25;;;;;;;48.13;26.73;;;;;;;;;;5135838;27;20031;-60
2021/04/21 04:30:50;;;;;;;40.45;25.77;;;;;;;;;;5136077;27;20122;-60
2021/04/21 04:33:18;;;;;;;49.72;27.85;;;;;;;;;;5135641;27;20109;-60
2021/04/21 04:35:44;;;;;;;43.58;25.30;;;;;;;;;;5135748;27;20011;-60
2021/04/21 04:38:11;;;;;;;42.97;25.15;;;;;;;;;;5134432;27;20027;-60
2021/04/21 04:40:37;;;;;;;46.10;26.33;;;;;;;;;;5134102;27;20359;-59
2021/04/21 04:43:02;;;;;;;51.05;28.50;;;;;;;;;;5135343;27;20038;-60
2021/04/21 04:45:29;;;;;;;46.33;27.45;;;;;;;;;;5135473;27;20015;-60
2021/04/21 04:47:57;;;;;;;50.60;28.50;;;;;;;;;;5135343;27;20062;-60
2021/04/21 04:50:23;;;;;;;48.35;27.90;;;;;;;;;;5134193;27;20439;-61
2021/04/21 04:52:53;;;;;;;51.78;28.73;;;;;;;;;;5135017;27;20027;-60
2021/04/21 04:55:20;;;;;;;45.08;27.65;;;;;;;;;;5135008;27;20078;-60
2021/04/21 04:57:47;;;;;;;46.80;28.95;;;;;;;;;;5134977;27;20080;-60
2021/04/21 05:00:14;;;;;;;50.05;30.88;;;;;;;;;;5134546;27;20437;-60
2021/04/21 05:02:45;;;;;;;48.88;29.13;;;;;;;;;;5134861;27;20043;-60
2021/04/21 05:05:11;;;;;;;47.50;28.70;;;;;;;;;;5135317;27;20463;-59
2021/04/21 05:07:43;;;;;;;48.85;29.52;;;;;;;;;;5133905;27;20027;-60
2021/04/21 05:10:17;;;;;;;50.83;30.20;;;;;;;;;;5135140;27;20106;-60
2021/04/21 05:12:43;;;;;;;52.08;29.02;;;;;;;;;;5135092;27;20110;-60
2021/04/21 05:15:28;;;;;;;52.08;30.20;;;;;;;;;;5134899;27;20103;-60
2021/04/21 05:17:57;;;;;;;49.67;29.63;;;;;;;;;;5135319;27;20019;-60
2021/04/21 05:20:22;;;;;;;49.03;29.40;;;;;;;;;;5135038;27;20054;-60
2021/04/21 05:23:07;;;;;;;46.65;29.13;;;;;;;;;;5135096;27;20056;-63
2021/04/21 05:26:05;;;;;;;45.70;29.30;;;;;;;;;;5134753;27;20673;-61
2021/04/21 05:28:41;;;;;;;51.70;31.10;;;;;;;;;;5134507;27;20055;-61
2021/04/21 05:31:09;;;;;;;51.70;31.02;;;;;;;;;;5134363;27;20031;-61
2021/04/21 05:33:53;;;;;;;54.05;32.25;;;;;;;;;;5134485;27;20037;-61
2021/04/21 05:36:38;;;;;;;54.50;32.78;;;;;;;;;;5134472;27;20075;-60
2021/04/21 05:39:03;;;;;;;57.90;33.75;;;;;;;;;;5134587;27;20027;-61
2021/04/21 05:41:47;;;;;;;52.83;30.65;;;;;;;;;;5134365;27;20023;-60
2021/04/21 05:44:31;;;;;;;53.88;30.10;;;;;;;;;;5132968;27;20076;-60
2021/04/21 05:47:12;;;;;;;51.33;31.33;;;;;;;;;;5134453;27;20058;-61
2021/04/21 05:49:56;;;;;;;46.97;29.05;;;;;;;;;;5134353;27;20034;-61
2021/04/21 05:52:31;;;;;;;52.60;31.58;;;;;;;;;;5134151;27;20494;-61
2021/04/21 05:55:12;;;;;;;52.92;31.83;;;;;;;;;;5133988;27;20046;-61
2021/04/21 05:57:56;;;;;;;50.70;31.27;;;;;;;;;;5134221;27;20041;-61
2021/04/21 06:00:24;;;;;;;53.45;31.55;;;;;;;;;;5134452;27;20363;-61
2021/04/21 06:02:50;;;;;;;55.72;32.85;;;;;;;;;;5133749;27;20100;-60
2021/04/21 06:05:16;;;;;;;55.85;34.55;;;;;;;;;;5133979;28;20375;-61
2021/04/21 06:07:42;;;;;;;52.47;32.25;;;;;;;;;;5134057;27;20092;-61
2021/04/21 06:10:18;;;;;;;41.08;27.05;;;;;;;;;;5132866;27;20452;-61
2021/04/21 06:12:45;;;;;;;45.20;27.33;;;;;;;;;;5138126;27;20042;-61
2021/04/21 06:15:12;;;;;;;40.95;27.05;;;;;;;;;;5137468;27;20459;-61
2021/04/21 06:17:38;;;;;;;41.33;25.30;;;;;;;;;;5138043;27;20069;-61
2021/04/21 06:20:04;;;;;;;48.20;28.60;;;;;;;;;;5138572;27;20046;-61
2021/04/21 06:22:30;;;;;;;46.05;29.83;;;;;;;;;;5138191;27;20080;-61
2021/04/21 06:25:11;;;;;;;48.47;28.95;;;;;;;;;;5138200;27;20115;-60
2021/04/21 06:27:37;;;;;;;45.53;26.48;;;;;;;;;;5138440;27;20063;-60
2021/04/21 06:30:06;;;;;;;45.75;26.98;;;;;;;;;;5136900;27;20023;-60
2021/04/21 06:32:32;;;;;;;48.65;28.00;;;;;;;;;;5137967;27;20027;-60
2021/04/21 06:35:07;;;;;;;43.08;25.40;;;;;;;;;;5138079;27;20012;-59
2021/04/21 06:37:34;;;;;;;38.03;21.15;;;;;;;;;;5138112;27;20019;-60
2021/04/21 06:40:01;;;;;;;50.50;29.27;;;;;;;;;;5138184;27;20015;-60
2021/04/21 06:42:26;;;;;;;48.58;28.63;;;;;;;;;;5136605;27;20041;-60
2021/04/21 06:44:52;;;;;;;50.17;28.35;;;;;;;;;;5137955;27;20102;-59
2021/04/21 06:47:21;;;;;;;52.15;29.65;;;;;;;;;;5137993;27;20514;-60
2021/04/21 06:50:02;;;;;;;47.72;26.23;;;;;;;;;;5137954;27;20074;-60
2021/04/21 06:52:27;;;;;;;;;;;;;;;;;;5138154;27;20027;-59
2021/04/21 06:55:00;;;;;;;30.73;16.85;;;;;;;;;;5137568;27;19911;-60
2021/04/21 06:57:29;;;;;;;33.97;19.27;;;;;;;;;;5137724;27;20023;-60
2021/04/21 07:00:08;;;;;;;31.80;17.15;;;;;;;;;;5137596;27;20060;-60
2021/04/21 07:02:35;;;;;;;34.63;17.65;;;;;;;;;;5137049;27;20047;-60
2021/04/21 07:05:01;;;;;;;35.85;19.48;;;;;;;;;;5137676;27;20027;-59
2021/04/21 07:07:26;;;;;;;31.45;17.50;;;;;;;;;;5137501;27;20019;-59
2021/04/21 07:09:52;;;;;;;35.22;19.02;;;;;;;;;;5137545;27;20035;-60
2021/04/21 07:12:17;;;;;;;37.45;17.70;;;;;;;;;;5137279;27;20424;-60
2021/04/21 07:14:43;;;;;;;33.17;15.80;;;;;;;;;;5137545;27;20067;-60
2021/04/21 07:17:09;;;;;;;39.55;21.60;;;;;;;;;;5137257;27;20019;-59
2021/04/21 07:19:36;;;;;;;43.80;24.38;;;;;;;;;;5136996;27;20115;-59
2021/04/21 07:22:01;;;;;;;39.17;18.88;;;;;;;;;;5135146;27;20473;-59
2021/04/21 07:24:29;;;;;;;23.70;12.93;;;;;;;;;;5136839;27;20109;-59
2021/04/21 07:26:55;;;;;;;27.75;15.60;;;;;;;;;;5137154;27;20377;-59
2021/04/21 07:29:22;;;;;;;27.40;15.85;;;;;;;;;;5136832;27;20390;-59
2021/04/21 07:31:48;;;;;;;26.30;16.63;;;;;;;;;;5136850;27;20032;-59
2021/04/21 07:34:14;;;;;;;29.95;17.95;;;;;;;;;;5137001;27;20084;-60
2021/04/21 07:36:46;;;;;;;33.70;16.92;;;;;;;;;;5136721;27;20386;-59
2021/04/21 07:39:13;;;;;;;28.58;15.18;;;;;;;;;;5136860;27;20015;-59
2021/04/21 07:41:40;;;;;;;23.63;13.25;;;;;;;;;;5136826;27;20206;-59
2021/04/21 07:44:24;;;;;;;26.17;15.73;;;;;;;;;;5136562;27;20035;-59
2021/04/21 07:47:05;;;;;;;29.38;16.92;;;;;;;;;;5135589;27;20428;-59
2021/04/21 07:49:31;;;;;;;24.85;15.02;;;;;;;;;;5136362;27;20080;-59
2021/04/21 07:51:56;;;;;;;25.77;15.50;;;;;;;;;;5136516;27;20023;-59
2021/04/21 07:54:23;;;;;;;28.25;15.82;;;;;;;;;;5136615;27;20658;-60
2021/04/21 07:56:51;;;;;;;27.40;14.90;;;;;;;;;;5136484;27;20046;-59
2021/04/21 07:59:25;;;;;;;19.80;11.77;;;;;;;;;;5136424;27;20102;-60
2021/04/21 08:01:51;;;;;;;19.55;10.63;;;;;;;;;;5135973;27;20035;-61
2021/04/21 08:04:25;;;;;;;22.98;12.77;;;;;;;;;;5135355;27;20051;-61
2021/04/21 08:06:55;;;;;;;18.42;12.10;;;;;;;;;;5135788;27;20027;-62
2021/04/21 08:09:21;;;;;;;22.15;12.65;;;;;;;;;;5136341;27;20023;-61
2021/04/21 08:12:05;;;;;;;21.27;14.63;;;;;;;;;;5134762;27;20356;-61
2021/04/21 08:14:55;;;;;;;19.85;11.45;;;;;;;;;;5134977;27;20057;-61
2021/04/21 08:17:23;;;;;;;;;;;;;;;;;;5136759;27;20106;-62
2021/04/21 08:19:55;;;;;;;18.80;11.25;;;;;;;;;;5135996;27;19904;-62
2021/04/21 08:22:28;;;;;;;18.75;11.02;;;;;;;;;;5134603;27;20079;-62
2021/04/21 08:24:56;;;;;;;15.38;9.00;;;;;;;;;;5136093;27;20031;-62
2021/04/21 08:27:22;;;;;;;18.13;10.77;;;;;;;;;;5136122;27;20451;-62
2021/04/21 08:29:47;;;;;;;14.98;9.55;;;;;;;;;;5136082;27;20027;-62
2021/04/21 08:32:19;;;;;;;12.00;7.30;;;;;;;;;;5134639;27;20029;-62
2021/04/21 08:34:46;;;;;;;16.88;10.07;;;;;;;;;;5135957;27;20454;-61
2021/04/21 08:37:12;;;;;;;16.00;9.82;;;;;;;;;;5134456;27;20437;-63
2021/04/21 08:39:38;;;;;;;16.35;9.90;;;;;;;;;;5135672;27;20118;-63
2021/04/21 08:42:05;;;;;;;14.27;8.48;;;;;;;;;;5135713;27;20072;-63
2021/04/21 08:44:35;;;;;;;13.45;9.13;;;;;;;;;;5135521;27;20542;-63
2021/04/21 08:47:01;;;;;;;11.77;8.20;;;;;;;;;;5135619;27;20023;-63
2021/04/21 08:49:28;;;;;;;12.25;8.57;;;;;;;;;;5135545;27;20451;-60
2021/04/21 08:51:55;;;;;;;15.32;8.77;;;;;;;;;;5135580;27;20530;-61
2021/04/21 08:54:22;;;;;;;10.02;6.78;;;;;;;;;;5135239;27;20152;-61
2021/04/21 08:56:48;;;;;;;15.00;7.68;;;;;;;;;;5135149;27;20466;-62
2021/04/21 08:59:15;;;;;;;12.73;7.65;;;;;;;;;;5134553;27;20007;-63
2021/04/21 09:01:45;;;;;;;12.80;9.98;;;;;;;;;;5137993;27;20043;-63
2021/04/21 09:04:12;;;;;;;16.33;10.02;;;;;;;;;;5155563;27;20481;-62
2021/04/21 09:06:38;;;;;;;10.60;7.82;;;;;;;;;;5137034;27;20027;-62
2021/04/21 09:09:03;;;;;;;12.93;8.50;;;;;;;;;;5155573;27;20026;-62
2021/04/21 09:11:29;;;;;;;13.02;8.38;;;;;;;;;;5155523;27;20448;-62
2021/04/21 09:13:55;;;;;;;15.27;9.30;;;;;;;;;;5155470;27;20031;-62
2021/04/21 09:16:20;;;;;;;8.40;5.97;;;;;;;;;;5155546;27;20025;-62
2021/04/21 09:18:48;;;;;;;10.90;7.75;;;;;;;;;;5155729;27;20125;-62
2021/04/21 09:21:24;;;;;;;11.80;7.78;;;;;;;;;;5155601;27;20011;-62
2021/04/21 09:23:50;;;;;;;5.63;3.53;;;;;;;;;;5155505;27;20067;-62
2021/04/21 09:26:15;;;;;;;14.10;8.40;;;;;;;;;;5155477;27;20475;-62
2021/04/21 09:28:42;;;;;;;11.63;7.20;;;;;;;;;;5155041;27;20484;-62
2021/04/21 09:31:12;;;;;;;12.73;7.55;;;;;;;;;;5154849;27;20026;-62
2021/04/21 09:33:38;;;;;;;14.80;8.75;;;;;;;;;;5154435;27;20044;-62
2021/04/21 09:36:03;;;;;;;10.77;7.57;;;;;;;;;;5154557;27;20018;-62
2021/04/21 09:38:29;;;;;;;9.40;6.68;;;;;;;;;;5154914;27;20030;-62
2021/04/21 09:40:56;;;;;;;11.90;7.53;;;;;;;;;;5154981;27;20019;-62
2021/04/21 09:43:23;;;;;;;15.50;8.32;;;;;;;;;;5154345;27;20114;-62
2021/04/21 09:46:08;;;;;;;8.57;7.18;;;;;;;;;;5153134;27;20014;-62
2021/04/21 09:48:37;;;;;;;12.13;7.07;;;;;;;;;;5143352;27;20054;-62
2021/04/21 09:51:03;;;;;;;8.95;6.47;;;;;;;;;;5154854;27;20025;-62
2021/04/21 09:53:30;;;;;;;11.07;5.32;;;;;;;;;;5133526;27;20485;-62
2021/04/21 09:56:01;;;;;;;10.07;5.93;;;;;;;;;;5154212;27;20037;-62
2021/04/21 09:58:31;;;;;;;8.20;6.40;;;;;;;;;;5154669;27;20155;-62
2021/04/21 10:00:56;;;;;;;11.30;6.50;;;;;;;;;;5154391;27;20466;-62
2021/04/21 10:03:22;;;;;;;10.27;6.78;;;;;;;;;;5154178;27;20035;-62
2021/04/21 10:05:50;;;;;;;10.40;6.82;;;;;;;;;;5154162;27;20058;-63
2021/04/21 10:08:25;;;;;;;10.98;6.28;;;;;;;;;;5154481;27;20106;-63
2021/04/21 10:11:04;;;;;;;14.23;6.45;;;;;;;;;;5154459;27;20106;-62
2021/04/21 10:13:40;;;;;;;7.72;5.45;;;;;;;;;;5135928;27;20038;-62
2021/04/21 10:16:09;;;;;;;11.68;7.63;;;;;;;;;;5154393;27;20023;-62
2021/04/21 10:18:42;;;;;;;8.75;6.13;;;;;;;;;;5154370;27;20019;-62
2021/04/21 10:21:08;;;;;;;7.38;5.82;;;;;;;;;;5154310;27;20023;-62
2021/04/21 10:23:38;;;;;;;8.52;5.43;;;;;;;;;;5154366;27;20033;-62
2021/04/21 10:26:11;;;;;;;7.72;6.45;;;;;;;;;;5135846;27;20083;-62
2021/04/21 10:28:37;;;;;;;8.48;6.60;;;;;;;;;;5154245;27;20031;-62
2021/04/21 10:31:07;;;;;;;9.23;6.50;;;;;;;;;;5154219;27;20363;-62
2021/04/21 10:33:34;;;;;;;7.03;6.13;;;;;;;;;;5154281;27;20031;-62
2021/04/21 10:35:59;;;;;;;7.72;5.65;;;;;;;;;;5154274;27;20026;-62
2021/04/21 10:38:26;;;;;;;9.05;6.85;;;;;;;;;;5154321;27;20030;-62
2021/04/21 10:41:12;;;;;;;4.93;3.80;;;;;;;;;;5154245;27;20015;-62
2021/04/21 10:43:38;;;;;;;8.65;5.57;;;;;;;;;;5124596;27;20038;-62
2021/04/21 10:46:04;;;;;;;8.23;4.90;;;;;;;;;;5153816;27;20053;-62
2021/04/21 10:48:41;;;;;;;9.30;5.93;;;;;;;;;;5154067;27;20031;-62
2021/04/21 10:51:26;;;;;;;6.82;5.72;;;;;;;;;;5154230;27;20065;-62
2021/04/21 10:53:51;;;;;;;7.22;4.80;;;;;;;;;;5153929;27;20026;-62
2021/04/21 10:56:23;;;;;;;7.63;5.80;;;;;;;;;;5154002;27;20029;-62
2021/04/21 10:58:51;;;;;;;10.15;6.25;;;;;;;;;;5156545;27;20033;-62
2021/04/21 11:01:31;;;;;;;8.73;6.05;;;;;;;;;;5157585;27;20014;-62
2021/04/21 11:03:57;;;;;;;;;;;;;;;;;;5139666;27;20482;-62
2021/04/21 11:06:51;;;;;;;9.65;7.00;;;;;;;;;;5157552;27;19958;-62
2021/04/21 11:09:17;;;;;;;7.10;5.20;;;;;;;;;;5143286;27;20034;-62
2021/04/21 11:11:45;;;;;;;7.65;6.40;;;;;;;;;;5157545;27;20050;-62
2021/04/21 11:14:14;;;;;;;10.77;6.40;;;;;;;;;;5157598;27;20080;-62
2021/04/21 11:16:40;;;;;;;6.53;5.10;;;;;;;;;;5157625;27;20021;-62
2021/04/21 11:19:17;;;;;;;8.80;6.38;;;;;;;;;;5157479;27;20501;-62
2021/04/21 11:21:44;;;;;;;11.00;6.82;;;;;;;;;;5157409;27;20022;-62
2021/04/21 11:24:10;;;;;;;10.88;6.60;;;;;;;;;;5138795;27;20381;-62
2021/04/21 11:26:36;;;;;;;4.70;3.95;;;;;;;;;;5157292;27;20498;-62
2021/04/21 11:29:05;;;;;;;8.23;5.93;;;;;;;;;;5138770;27;20430;-63
2021/04/21 11:31:43;;;;;;;9.13;4.95;;;;;;;;;;5157181;27;20040;-63
2021/04/21 11:34:21;;;;;;;4.95;4.03;;;;;;;;;;5157033;27;20023;-63
2021/04/21 11:37:06;;;;;;;3.05;2.67;;;;;;;;;;5157181;27;20051;-63
2021/04/21 11:39:40;;;;;;;6.57;4.55;;;;;;;;;;5157239;27;20385;-64
2021/04/21 11:42:24;;;;;;;9.27;5.40;;;;;;;;;;5156780;27;20079;-64
2021/04/21 11:44:54;;;;;;;7.10;5.43;;;;;;;;;;5156872;27;20023;-64
2021/04/21 11:47:38;;;;;;;10.43;5.47;;;;;;;;;;5156938;27;20071;-64
2021/04/21 11:50:05;;;;;;;9.45;5.55;;;;;;;;;;5157014;27;20038;-64
2021/04/21 11:52:43;;;;;;;7.38;5.35;;;;;;;;;;5156664;27;20029;-64
2021/04/21 11:55:09;;;;;;;6.88;5.38;;;;;;;;;;5156755;27;20029;-63
2021/04/21 11:57:36;;;;;;;6.15;4.90;;;;;;;;;;5156723;27;20067;-63
2021/04/21 12:00:04;;;;;;;9.55;5.00;;;;;;;;;;5156804;27;20037;-63
2021/04/21 12:02:37;;;;;;;4.63;4.22;;;;;;;;;;5151297;27;20054;-64
2021/04/21 12:05:03;;;;;;;4.40;3.55;;;;;;;;;;5138240;27;20074;-63
2021/04/21 12:07:28;;;;;;;4.30;3.90;;;;;;;;;;5156608;27;20023;-63
2021/04/21 12:09:54;;;;;;;3.80;3.47;;;;;;;;;;5156200;27;20423;-63
2021/04/21 12:12:26;;;;;;;3.67;3.38;;;;;;;;;;5156330;27;20098;-63
2021/04/21 12:15:05;;;;;;;5.10;4.32;;;;;;;;;;5156421;27;20030;-63
2021/04/21 12:17:31;;;;;;;3.67;3.38;;;;;;;;;;5156335;27;20159;-63
2021/04/21 12:19:59;;;;;;;3.88;3.58;;;;;;;;;;5156347;27;20101;-63
2021/04/21 12:22:38;;;;;;;4.80;3.95;;;;;;;;;;5137587;27;20027;-63
2021/04/21 12:25:07;;;;;;;3.70;3.35;;;;;;;;;;5156090;27;20018;-63
2021/04/21 12:27:33;;;;;;;4.35;3.95;;;;;;;;;;5156165;27;20018;-63
2021/04/21 12:30:15;;;;;;;4.80;3.85;;;;;;;;;;5156008;27;20034;-63
2021/04/21 12:32:41;;;;;;;4.35;3.95;;;;;;;;;;5155948;27;20023;-63
2021/04/21 12:35:08;;;;;;;7.97;5.32;;;;;;;;;;5155863;27;20037;-63
2021/04/21 12:37:34;;;;;;;8.35;5.05;;;;;;;;;;5155810;27;20019;-61
2021/04/21 12:39:59;;;;;;;7.18;5.70;;;;;;;;;;5155921;27;20027;-60
2021/04/21 12:42:25;;;;;;;5.35;4.80;;;;;;;;;;5155895;27;20039;-61
2021/04/21 12:44:50;;;;;;;4.30;3.97;;;;;;;;;;5155845;27;20404;-61
2021/04/21 12:47:16;;;;;;;5.18;4.78;;;;;;;;;;5155819;27;20015;-60
2021/04/21 12:49:51;;;;;;;8.48;5.85;;;;;;;;;;5155735;27;20011;-61
2021/04/21 12:52:18;;;;;;;4.18;3.80;;;;;;;;;;5155546;27;20019;-60
2021/04/21 12:54:45;;;;;;;4.00;3.60;;;;;;;;;;5155555;27;20015;-61
2021/04/21 12:57:14;;;;;;;5.18;4.68;;;;;;;;;;5155122;27;20118;-60
2021/04/21 12:59:42;;;;;;;5.03;4.32;;;;;;;;;;5154882;27;20015;-60
2021/04/21 13:02:13;;;;;;;22.10;10.05;;;;;;;;;;5154932;27;20069;-61
2021/04/21 13:04:39;;;;;;;10.35;6.93;;;;;;;;;;5154776;27;20058;-61
2021/04/21 13:07:12;;;;;;;4.53;4.13;;;;;;;;;;5155076;27;20022;-61
2021/04/21 13:09:37;;;;;;;4.70;4.40;;;;;;;;;;5136495;27;20033;-62
2021/04/21 13:12:04;;;;;;;4.97;4.47;;;;;;;;;;5154917;27;20019;-60
2021/04/21 13:14:36;;;;;;;6.22;4.25;;;;;;;;;;5155041;27;20026;-60
2021/04/21 13:17:02;;;;;;;5.03;4.43;;;;;;;;;;5155136;27;20026;-61
2021/04/21 13:19:29;;;;;;;4.57;3.67;;;;;;;;;;5155296;27;20030;-60
2021/04/21 13:22:14;;;;;;;5.95;5.45;;;;;;;;;;5136433;27;20027;-60
2021/04/21 13:24:41;;;;;;;4.32;3.78;;;;;;;;;;5155647;27;20023;-60
2021/04/21 13:27:13;;;;;;;4.85;3.95;;;;;;;;;;5155131;27;20030;-60
2021/04/21 13:29:39;;;;;;;3.83;3.50;;;;;;;;;;5155010;27;20023;-60
2021/04/21 13:32:08;;;;;;;3.80;3.50;;;;;;;;;;5155550;27;20019;-60
2021/04/21 13:34:34;;;;;;;3.92;3.30;;;;;;;;;;5155361;27;20026;-61
2021/04/21 13:37:00;;;;;;;4.13;3.35;;;;;;;;;;5155174;27;20094;-60
2021/04/21 13:39:26;;;;;;;3.30;3.00;;;;;;;;;;5155316;27;20030;-60
2021/04/21 13:41:51;;;;;;;3.20;2.70;;;;;;;;;;5154974;27;20022;-60
2021/04/21 13:44:17;;;;;;;4.78;4.13;;;;;;;;;;5154995;27;20039;-61
2021/04/21 13:46:42;;;;;;;3.80;3.45;;;;;;;;;;5154990;27;20097;-61
2021/04/21 13:49:08;;;;;;;3.85;3.42;;;;;;;;;;5155092;27;20600;-61
2021/04/21 13:51:33;;;;;;;4.75;4.28;;;;;;;;;;5154931;27;20530;-61
2021/04/21 13:53:59;;;;;;;4.80;4.30;;;;;;;;;;5154964;27;20026;-61
2021/04/21 13:56:24;;;;;;;4.45;3.28;;;;;;;;;;5155073;27;20011;-61
2021/04/21 13:58:50;;;;;;;5.15;4.10;;;;;;;;;;5155085;27;20046;-61
2021/04/21 14:01:15;;;;;;;5.25;4.45;;;;;;;;;;5155070;27;20101;-61
2021/04/21 14:03:41;;;;;;;5.68;4.50;;;;;;;;;;5115345;28;20504;-64
2021/04/21 14:06:06;;;;;;;4.57;4.20;;;;;;;;;;5132760;28;20059;-64
2021/04/21 14:08:33;;;;;;;7.80;4.60;;;;;;;;;;5134141;28;20031;-64
2021/04/21 14:11:01;;;;;;;4.88;4.03;;;;;;;;;;5133761;27;20025;-64
2021/04/21 14:13:27;;;;;;;5.18;3.80;;;;;;;;;;5133997;28;20060;-63
2021/04/21 14:15:52;;;;;;;7.13;4.78;;;;;;;;;;5133227;27;20011;-63
2021/04/21 14:18:18;;;;;;;8.13;6.18;;;;;;;;;;5134160;28;20053;-63
2021/04/21 14:20:43;;;;;;;12.05;7.00;;;;;;;;;;5134069;27;20018;-63
2021/04/21 14:23:09;;;;;;;14.77;8.43;;;;;;;;;;5132901;28;20035;-63
2021/04/21 14:25:36;;;;;;;11.05;6.90;;;;;;;;;;5132949;28;20028;-63
2021/04/21 14:28:02;;;;;;;8.75;5.93;;;;;;;;;;5134036;28;20029;-63
2021/04/21 14:30:27;;;;;;;8.13;5.60;;;;;;;;;;5134001;27;20462;-63
2021/04/21 14:32:53;;;;;;;11.93;8.15;;;;;;;;;;5136697;27;20027;-63
2021/04/21 14:35:19;;;;;;;8.63;6.88;;;;;;;;;;5138094;27;20019;-62
2021/04/21 14:37:44;;;;;;;13.25;8.75;;;;;;;;;;5138130;27;20015;-63
2021/04/21 14:40:10;;;;;;;8.68;7.80;;;;;;;;;;5137963;27;20011;-62
2021/04/21 14:42:35;;;;;;;8.35;5.57;;;;;;;;;;5138016;27;20039;-62